LFGJ/DLE METAR and TAF weather

Enter ICAO airport designator
Station Type Date Time Source
LFGJ METAR 2019/08/24 19:00 UTC NOAA

LFGJ 241900Z AUTO 03003KT CAVOK 22/15 Q1017


Station Type Date Time Source
LFGJ Decoded METAR 2019/08/24 19:00 UTC NOAA

Station name not available
Aug 24, 2019 - 03:00 PM EDT / 2019.08.24 1900 UTC
Wind: from the NNE (030 degrees) at 3 MPH (3 KT):0
Visibility: greater than 7 mile(s):0
Temperature: 71 F (22 C)
Dew Point: 59 F (15 C)
Relative Humidity: 64%
Pressure (altimeter): 30.03 in. Hg (1017 hPa)
ob: LFGJ 241900Z AUTO 03003KT CAVOK 22/15 Q1017
cycle: 19

Station Type Date Time Source
LFGJ TAF 2012/05/01 21:57 UTC NOAA

TAF
AMD TAF
AMD LFGJ 010355Z 3021/0106 18008KT 9999 FEW023 SCT035 BKN050
TEMPO 0102/0103 4000 -SHRA BR FEW012TCU BKN015
BECMG 0103/0104 VRB03KT 0200 FG VV///

Example: see airport list